sensor_id;sensor_type;location;lat;lon;timestamp;P1;durP1;ratioP1;P2;durP2;ratioP2
3491;SDS011;1760;52.480;13.422;2023-04-06T00:00:32;8.90;;;4.93;;
3491;SDS011;1760;52.480;13.422;2023-04-06T00:02:59;6.97;;;4.80;;
3491;SDS011;1760;52.480;13.422;2023-04-06T00:05:26;5.80;;;3.80;;
3491;SDS011;1760;52.480;13.422;2023-04-06T00:07:55;5.70;;;4.40;;
3491;SDS011;1760;52.480;13.422;2023-04-06T00:10:24;5.60;;;4.50;;
3491;SDS011;1760;52.480;13.422;2023-04-06T00:12:54;4.30;;;3.90;;
3491;SDS011;1760;52.480;13.422;2023-04-06T00:15:22;8.60;;;5.33;;
3491;SDS011;1760;52.480;13.422;2023-04-06T00:17:49;7.93;;;3.53;;
3491;SDS011;1760;52.480;13.422;2023-04-06T00:20:16;6.10;;;5.43;;
3491;SDS011;1760;52.480;13.422;2023-04-06T00:22:44;5.00;;;4.23;;
3491;SDS011;1760;52.480;13.422;2023-04-06T00:25:11;4.10;;;3.53;;
3491;SDS011;1760;52.480;13.422;2023-04-06T00:27:40;9.60;;;4.33;;
3491;SDS011;1760;52.480;13.422;2023-04-06T00:30:09;6.83;;;5.30;;
3491;SDS011;1760;52.480;13.422;2023-04-06T00:32:36;10.40;;;4.77;;
3491;SDS011;1760;52.480;13.422;2023-04-06T00:35:06;7.90;;;5.10;;
3491;SDS011;1760;52.480;13.422;2023-04-06T00:37:33;11.53;;;6.23;;
3491;SDS011;1760;52.480;13.422;2023-04-06T00:40:00;7.53;;;4.97;;
3491;SDS011;1760;52.480;13.422;2023-04-06T00:42:27;9.40;;;5.00;;
3491;SDS011;1760;52.480;13.422;2023-04-06T00:44:55;5.33;;;4.00;;
3491;SDS011;1760;52.480;13.422;2023-04-06T00:47:24;4.40;;;4.00;;
3491;SDS011;1760;52.480;13.422;2023-04-06T00:49:54;6.10;;;4.30;;
3491;SDS011;1760;52.480;13.422;2023-04-06T00:52:21;8.30;;;4.90;;
3491;SDS011;1760;52.480;13.422;2023-04-06T00:54:48;4.43;;;3.10;;
3491;SDS011;1760;52.480;13.422;2023-04-06T00:57:15;6.70;;;3.63;;
3491;SDS011;1760;52.480;13.422;2023-04-06T00:59:43;6.53;;;3.60;;
3491;SDS011;1760;52.480;13.422;2023-04-06T01:02:10;4.77;;;3.60;;
3491;SDS011;1760;52.480;13.422;2023-04-06T01:04:39;5.03;;;3.83;;
3491;SDS011;1760;52.480;13.422;2023-04-06T01:07:06;4.07;;;3.40;;
3491;SDS011;1760;52.480;13.422;2023-04-06T01:09:33;6.20;;;5.03;;
3491;SDS011;1760;52.480;13.422;2023-04-06T01:12:00;7.00;;;4.00;;
3491;SDS011;1760;52.480;13.422;2023-04-06T01:14:27;7.10;;;3.63;;
3491;SDS011;1760;52.480;13.422;2023-04-06T01:16:57;6.27;;;4.27;;
3491;SDS011;1760;52.480;13.422;2023-04-06T01:19:25;4.37;;;3.50;;
3491;SDS011;1760;52.480;13.422;2023-04-06T01:21:54;4.97;;;3.80;;
3491;SDS011;1760;52.480;13.422;2023-04-06T01:24:22;5.53;;;4.20;;
3491;SDS011;1760;52.480;13.422;2023-04-06T01:26:49;6.60;;;3.40;;
3491;SDS011;1760;52.480;13.422;2023-04-06T01:29:16;3.90;;;3.30;;
3491;SDS011;1760;52.480;13.422;2023-04-06T01:31:43;5.63;;;3.67;;
3491;SDS011;1760;52.480;13.422;2023-04-06T01:34:11;5.07;;;3.40;;
3491;SDS011;1760;52.480;13.422;2023-04-06T01:36:38;10.20;;;4.13;;
3491;SDS011;1760;52.480;13.422;2023-04-06T01:39:05;8.70;;;4.60;;
3491;SDS011;1760;52.480;13.422;2023-04-06T01:41:33;6.33;;;4.73;;
3491;SDS011;1760;52.480;13.422;2023-04-06T01:44:00;6.00;;;3.63;;
3491;SDS011;1760;52.480;13.422;2023-04-06T01:46:27;4.47;;;4.03;;
3491;SDS011;1760;52.480;13.422;2023-04-06T01:48:54;5.07;;;3.70;;
3491;SDS011;1760;52.480;13.422;2023-04-06T01:51:21;8.80;;;3.77;;
3491;SDS011;1760;52.480;13.422;2023-04-06T01:53:49;6.37;;;4.20;;
3491;SDS011;1760;52.480;13.422;2023-04-06T01:56:16;5.33;;;3.77;;
3491;SDS011;1760;52.480;13.422;2023-04-06T01:58:44;10.60;;;3.80;;
3491;SDS011;1760;52.480;13.422;2023-04-06T02:01:11;6.70;;;4.43;;
3491;SDS011;1760;52.480;13.422;2023-04-06T02:03:38;29.77;;;14.20;;
3491;SDS011;1760;52.480;13.422;2023-04-06T02:06:05;11.30;;;6.47;;
3491;SDS011;1760;52.480;13.422;2023-04-06T02:08:32;4.70;;;3.97;;
3491;SDS011;1760;52.480;13.422;2023-04-06T02:10:59;5.93;;;4.20;;
3491;SDS011;1760;52.480;13.422;2023-04-06T02:13:35;5.93;;;3.60;;
3491;SDS011;1760;52.480;13.422;2023-04-06T02:16:04;7.27;;;3.80;;
3491;SDS011;1760;52.480;13.422;2023-04-06T02:18:31;4.93;;;4.23;;
3491;SDS011;1760;52.480;13.422;2023-04-06T02:20:58;5.33;;;4.00;;
3491;SDS011;1760;52.480;13.422;2023-04-06T02:23:25;5.27;;;4.60;;
3491;SDS011;1760;52.480;13.422;2023-04-06T02:25:52;4.57;;;3.83;;
3491;SDS011;1760;52.480;13.422;2023-04-06T02:28:22;9.60;;;4.83;;
3491;SDS011;1760;52.480;13.422;2023-04-06T02:30:49;11.30;;;4.13;;
3491;SDS011;1760;52.480;13.422;2023-04-06T02:33:17;6.13;;;5.30;;
3491;SDS011;1760;52.480;13.422;2023-04-06T02:35:44;7.33;;;5.13;;
3491;SDS011;1760;52.480;13.422;2023-04-06T02:38:11;5.40;;;4.10;;
3491;SDS011;1760;52.480;13.422;2023-04-06T02:40:38;6.30;;;4.57;;
3491;SDS011;1760;52.480;13.422;2023-04-06T02:43:05;5.60;;;3.93;;
3491;SDS011;1760;52.480;13.422;2023-04-06T02:45:32;10.00;;;5.67;;
3491;SDS011;1760;52.480;13.422;2023-04-06T02:47:59;7.63;;;5.10;;
3491;SDS011;1760;52.480;13.422;2023-04-06T02:50:27;7.37;;;5.47;;
3491;SDS011;1760;52.480;13.422;2023-04-06T02:52:55;8.00;;;5.20;;
3491;SDS011;1760;52.480;13.422;2023-04-06T02:55:22;5.57;;;4.27;;
3491;SDS011;1760;52.480;13.422;2023-04-06T02:57:51;5.70;;;4.10;;
3491;SDS011;1760;52.480;13.422;2023-04-06T03:00:18;7.60;;;4.53;;
3491;SDS011;1760;52.480;13.422;2023-04-06T03:02:46;12.93;;;4.77;;
3491;SDS011;1760;52.480;13.422;2023-04-06T03:05:13;9.47;;;4.23;;
3491;SDS011;1760;52.480;13.422;2023-04-06T03:07:41;8.70;;;4.47;;
3491;SDS011;1760;52.480;13.422;2023-04-06T03:10:08;5.57;;;4.30;;
3491;SDS011;1760;52.480;13.422;2023-04-06T03:12:35;7.00;;;4.83;;
3491;SDS011;1760;52.480;13.422;2023-04-06T03:15:03;5.57;;;4.00;;
3491;SDS011;1760;52.480;13.422;2023-04-06T03:17:30;16.00;;;5.80;;
3491;SDS011;1760;52.480;13.422;2023-04-06T03:19:57;8.40;;;5.30;;
3491;SDS011;1760;52.480;13.422;2023-04-06T03:22:30;7.40;;;4.70;;
3491;SDS011;1760;52.480;13.422;2023-04-06T03:24:59;6.90;;;5.13;;
3491;SDS011;1760;52.480;13.422;2023-04-06T03:27:26;8.10;;;4.90;;
3491;SDS011;1760;52.480;13.422;2023-04-06T03:29:53;10.53;;;6.20;;
3491;SDS011;1760;52.480;13.422;2023-04-06T03:32:20;6.40;;;4.90;;
3491;SDS011;1760;52.480;13.422;2023-04-06T03:34:47;8.40;;;6.43;;
3491;SDS011;1760;52.480;13.422;2023-04-06T03:37:14;7.23;;;5.83;;
3491;SDS011;1760;52.480;13.422;2023-04-06T03:39:41;11.53;;;7.00;;
3491;SDS011;1760;52.480;13.422;2023-04-06T03:42:09;7.90;;;5.90;;
3491;SDS011;1760;52.480;13.422;2023-04-06T03:44:36;8.40;;;5.33;;
3491;SDS011;1760;52.480;13.422;2023-04-06T03:47:03;9.60;;;6.60;;
3491;SDS011;1760;52.480;13.422;2023-04-06T03:49:30;7.00;;;5.17;;
3491;SDS011;1760;52.480;13.422;2023-04-06T03:51:58;8.67;;;5.50;;
3491;SDS011;1760;52.480;13.422;2023-04-06T03:54:25;5.90;;;5.30;;
3491;SDS011;1760;52.480;13.422;2023-04-06T03:56:52;7.50;;;5.40;;
3491;SDS011;1760;52.480;13.422;2023-04-06T03:59:21;6.67;;;5.67;;
3491;SDS011;1760;52.480;13.422;2023-04-06T04:01:48;7.13;;;6.40;;
3491;SDS011;1760;52.480;13.422;2023-04-06T04:04:16;6.40;;;5.37;;
3491;SDS011;1760;52.480;13.422;2023-04-06T04:06:43;12.30;;;7.00;;
3491;SDS011;1760;52.480;13.422;2023-04-06T04:09:10;7.63;;;6.00;;
3491;SDS011;1760;52.480;13.422;2023-04-06T04:11:37;9.23;;;6.47;;
3491;SDS011;1760;52.480;13.422;2023-04-06T04:14:04;7.47;;;6.67;;
3491;SDS011;1760;52.480;13.422;2023-04-06T04:16:32;8.13;;;7.30;;
3491;SDS011;1760;52.480;13.422;2023-04-06T04:18:59;11.43;;;7.33;;
3491;SDS011;1760;52.480;13.422;2023-04-06T04:21:28;7.07;;;5.63;;
3491;SDS011;1760;52.480;13.422;2023-04-06T04:23:56;10.97;;;6.93;;
3491;SDS011;1760;52.480;13.422;2023-04-06T04:26:23;13.50;;;7.23;;
3491;SDS011;1760;52.480;13.422;2023-04-06T04:28:50;14.20;;;6.80;;
3491;SDS011;1760;52.480;13.422;2023-04-06T04:31:17;13.47;;;7.87;;
3491;SDS011;1760;52.480;13.422;2023-04-06T04:33:46;7.70;;;6.40;;
3491;SDS011;1760;52.480;13.422;2023-04-06T04:36:13;9.00;;;6.93;;
3491;SDS011;1760;52.480;13.422;2023-04-06T04:38:40;10.73;;;7.53;;
3491;SDS011;1760;52.480;13.422;2023-04-06T04:41:07;6.70;;;5.83;;
3491;SDS011;1760;52.480;13.422;2023-04-06T04:43:34;7.67;;;5.43;;
3491;SDS011;1760;52.480;13.422;2023-04-06T04:46:01;8.40;;;5.87;;
3491;SDS011;1760;52.480;13.422;2023-04-06T04:48:31;10.37;;;6.97;;
3491;SDS011;1760;52.480;13.422;2023-04-06T04:51:00;11.70;;;6.50;;
3491;SDS011;1760;52.480;13.422;2023-04-06T04:53:27;19.67;;;6.20;;
3491;SDS011;1760;52.480;13.422;2023-04-06T04:55:54;7.80;;;6.60;;
3491;SDS011;1760;52.480;13.422;2023-04-06T04:58:21;6.20;;;5.70;;
3491;SDS011;1760;52.480;13.422;2023-04-06T05:00:48;11.97;;;5.97;;
3491;SDS011;1760;52.480;13.422;2023-04-06T05:03:16;8.67;;;6.40;;
3491;SDS011;1760;52.480;13.422;2023-04-06T05:05:47;6.17;;;5.43;;
3491;SDS011;1760;52.480;13.422;2023-04-06T05:08:15;9.97;;;6.67;;
3491;SDS011;1760;52.480;13.422;2023-04-06T05:10:42;5.60;;;4.50;;
3491;SDS011;1760;52.480;13.422;2023-04-06T05:13:11;10.93;;;5.53;;
3491;SDS011;1760;52.480;13.422;2023-04-06T05:15:38;6.13;;;4.87;;
3491;SDS011;1760;52.480;13.422;2023-04-06T05:18:08;8.00;;;5.07;;
3491;SDS011;1760;52.480;13.422;2023-04-06T05:20:36;6.40;;;5.67;;
3491;SDS011;1760;52.480;13.422;2023-04-06T05:23:04;6.40;;;4.73;;
3491;SDS011;1760;52.480;13.422;2023-04-06T05:25:32;8.97;;;5.00;;
3491;SDS011;1760;52.480;13.422;2023-04-06T05:27:59;7.83;;;5.23;;
3491;SDS011;1760;52.480;13.422;2023-04-06T05:30:29;9.70;;;5.33;;
3491;SDS011;1760;52.480;13.422;2023-04-06T05:32:56;7.37;;;5.03;;
3491;SDS011;1760;52.480;13.422;2023-04-06T05:35:23;8.10;;;5.10;;
3491;SDS011;1760;52.480;13.422;2023-04-06T05:37:50;5.70;;;4.50;;
3491;SDS011;1760;52.480;13.422;2023-04-06T05:40:17;9.57;;;4.97;;
3491;SDS011;1760;52.480;13.422;2023-04-06T05:42:45;8.90;;;4.50;;
3491;SDS011;1760;52.480;13.422;2023-04-06T05:45:14;9.77;;;5.93;;
3491;SDS011;1760;52.480;13.422;2023-04-06T05:47:43;12.73;;;6.60;;
3491;SDS011;1760;52.480;13.422;2023-04-06T05:50:10;6.50;;;4.30;;
3491;SDS011;1760;52.480;13.422;2023-04-06T05:52:38;18.63;;;6.20;;
3491;SDS011;1760;52.480;13.422;2023-04-06T05:55:08;5.77;;;4.60;;
3491;SDS011;1760;52.480;13.422;2023-04-06T05:57:35;7.57;;;5.43;;
3491;SDS011;1760;52.480;13.422;2023-04-06T06:00:04;10.53;;;5.63;;
3491;SDS011;1760;52.480;13.422;2023-04-06T06:02:34;9.10;;;5.50;;
3491;SDS011;1760;52.480;13.422;2023-04-06T06:05:00;6.53;;;5.37;;
3491;SDS011;1760;52.480;13.422;2023-04-06T06:07:27;7.37;;;6.20;;
3491;SDS011;1760;52.480;13.422;2023-04-06T06:09:56;8.47;;;5.07;;
3491;SDS011;1760;52.480;13.422;2023-04-06T06:12:23;10.50;;;5.50;;
3491;SDS011;1760;52.480;13.422;2023-04-06T06:14:50;8.30;;;5.57;;
3491;SDS011;1760;52.480;13.422;2023-04-06T06:17:18;9.77;;;5.57;;
3491;SDS011;1760;52.480;13.422;2023-04-06T06:19:47;13.53;;;6.70;;
3491;SDS011;1760;52.480;13.422;2023-04-06T06:22:14;5.50;;;4.93;;
3491;SDS011;1760;52.480;13.422;2023-04-06T06:24:41;8.70;;;4.97;;
3491;SDS011;1760;52.480;13.422;2023-04-06T06:27:08;11.33;;;4.93;;
3491;SDS011;1760;52.480;13.422;2023-04-06T06:29:35;7.63;;;5.70;;
3491;SDS011;1760;52.480;13.422;2023-04-06T06:32:02;7.10;;;5.27;;
3491;SDS011;1760;52.480;13.422;2023-04-06T06:34:31;10.07;;;5.70;;
3491;SDS011;1760;52.480;13.422;2023-04-06T06:36:57;10.13;;;6.57;;
3491;SDS011;1760;52.480;13.422;2023-04-06T06:39:24;9.70;;;5.73;;
3491;SDS011;1760;52.480;13.422;2023-04-06T06:41:51;7.30;;;5.40;;
3491;SDS011;1760;52.480;13.422;2023-04-06T06:44:19;10.23;;;5.77;;
3491;SDS011;1760;52.480;13.422;2023-04-06T06:46:46;9.30;;;5.50;;
3491;SDS011;1760;52.480;13.422;2023-04-06T06:49:13;6.93;;;5.20;;
3491;SDS011;1760;52.480;13.422;2023-04-06T06:51:42;12.63;;;4.90;;
3491;SDS011;1760;52.480;13.422;2023-04-06T06:54:09;12.00;;;5.63;;
3491;SDS011;1760;52.480;13.422;2023-04-06T06:56:36;6.63;;;4.87;;
3491;SDS011;1760;52.480;13.422;2023-04-06T06:59:03;6.97;;;4.73;;
3491;SDS011;1760;52.480;13.422;2023-04-06T07:01:31;6.07;;;5.23;;
3491;SDS011;1760;52.480;13.422;2023-04-06T07:03:59;8.80;;;4.10;;
3491;SDS011;1760;52.480;13.422;2023-04-06T07:06:26;8.57;;;5.73;;
3491;SDS011;1760;52.480;13.422;2023-04-06T07:08:54;7.73;;;5.00;;
3491;SDS011;1760;52.480;13.422;2023-04-06T07:11:21;11.27;;;6.33;;
3491;SDS011;1760;52.480;13.422;2023-04-06T07:13:48;8.93;;;6.30;;
3491;SDS011;1760;52.480;13.422;2023-04-06T07:16:15;8.80;;;6.00;;
3491;SDS011;1760;52.480;13.422;2023-04-06T07:18:42;6.70;;;5.40;;
3491;SDS011;1760;52.480;13.422;2023-04-06T07:21:09;6.87;;;4.97;;
3491;SDS011;1760;52.480;13.422;2023-04-06T07:23:36;11.90;;;4.97;;
3491;SDS011;1760;52.480;13.422;2023-04-06T07:26:05;7.10;;;5.27;;
3491;SDS011;1760;52.480;13.422;2023-04-06T07:28:32;5.23;;;4.67;;
3491;SDS011;1760;52.480;13.422;2023-04-06T07:30:59;6.67;;;4.87;;
3491;SDS011;1760;52.480;13.422;2023-04-06T07:33:26;21.13;;;10.70;;
3491;SDS011;1760;52.480;13.422;2023-04-06T07:35:55;12.80;;;6.70;;
3491;SDS011;1760;52.480;13.422;2023-04-06T07:38:23;9.37;;;5.10;;
3491;SDS011;1760;52.480;13.422;2023-04-06T07:40:50;6.10;;;4.33;;
3491;SDS011;1760;52.480;13.422;2023-04-06T07:43:18;5.97;;;4.20;;
3491;SDS011;1760;52.480;13.422;2023-04-06T07:45:45;7.40;;;4.50;;
3491;SDS011;1760;52.480;13.422;2023-04-06T07:48:14;10.63;;;3.60;;
3491;SDS011;1760;52.480;13.422;2023-04-06T07:50:41;9.90;;;3.63;;
3491;SDS011;1760;52.480;13.422;2023-04-06T07:53:08;8.17;;;3.97;;
3491;SDS011;1760;52.480;13.422;2023-04-06T07:55:35;6.73;;;3.23;;
3491;SDS011;1760;52.480;13.422;2023-04-06T07:58:02;5.03;;;2.90;;
3491;SDS011;1760;52.480;13.422;2023-04-06T08:00:31;3.50;;;3.17;;
3491;SDS011;1760;52.480;13.422;2023-04-06T08:02:58;6.17;;;3.43;;
3491;SDS011;1760;52.480;13.422;2023-04-06T08:05:25;8.63;;;4.50;;
3491;SDS011;1760;52.480;13.422;2023-04-06T08:07:52;5.73;;;3.83;;
3491;SDS011;1760;52.480;13.422;2023-04-06T08:10:19;4.57;;;3.97;;
3491;SDS011;1760;52.480;13.422;2023-04-06T08:12:46;9.23;;;4.03;;
3491;SDS011;1760;52.480;13.422;2023-04-06T08:15:13;14.60;;;4.20;;
3491;SDS011;1760;52.480;13.422;2023-04-06T08:17:41;9.60;;;3.60;;
3491;SDS011;1760;52.480;13.422;2023-04-06T08:20:08;7.77;;;3.93;;
3491;SDS011;1760;52.480;13.422;2023-04-06T08:22:36;9.20;;;3.60;;
3491;SDS011;1760;52.480;13.422;2023-04-06T08:25:03;5.23;;;3.47;;
3491;SDS011;1760;52.480;13.422;2023-04-06T08:27:31;4.87;;;4.23;;
3491;SDS011;1760;52.480;13.422;2023-04-06T08:29:58;6.20;;;3.80;;
3491;SDS011;1760;52.480;13.422;2023-04-06T08:32:25;8.47;;;3.07;;
3491;SDS011;1760;52.480;13.422;2023-04-06T08:34:54;5.90;;;3.77;;
3491;SDS011;1760;52.480;13.422;2023-04-06T08:37:21;8.83;;;3.47;;
3491;SDS011;1760;52.480;13.422;2023-04-06T08:39:48;5.53;;;3.43;;
3491;SDS011;1760;52.480;13.422;2023-04-06T08:42:16;4.33;;;2.63;;
3491;SDS011;1760;52.480;13.422;2023-04-06T08:44:47;4.93;;;3.30;;
3491;SDS011;1760;52.480;13.422;2023-04-06T08:47:16;5.80;;;3.27;;
3491;SDS011;1760;52.480;13.422;2023-04-06T08:49:43;4.00;;;3.50;;
3491;SDS011;1760;52.480;13.422;2023-04-06T08:52:13;3.83;;;2.77;;
3491;SDS011;1760;52.480;13.422;2023-04-06T08:54:43;4.57;;;3.10;;
3491;SDS011;1760;52.480;13.422;2023-04-06T08:57:10;3.50;;;2.50;;
3491;SDS011;1760;52.480;13.422;2023-04-06T08:59:38;7.60;;;2.83;;
3491;SDS011;1760;52.480;13.422;2023-04-06T09:02:06;3.60;;;2.83;;
3491;SDS011;1760;52.480;13.422;2023-04-06T09:04:40;4.20;;;2.60;;
3491;SDS011;1760;52.480;13.422;2023-04-06T09:07:07;2.60;;;2.33;;
3491;SDS011;1760;52.480;13.422;2023-04-06T09:09:36;3.60;;;2.50;;
3491;SDS011;1760;52.480;13.422;2023-04-06T09:12:08;5.23;;;2.50;;
3491;SDS011;1760;52.480;13.422;2023-04-06T09:14:37;3.17;;;2.63;;
3491;SDS011;1760;52.480;13.422;2023-04-06T09:17:05;3.53;;;2.53;;
3491;SDS011;1760;52.480;13.422;2023-04-06T09:19:32;3.23;;;2.93;;
3491;SDS011;1760;52.480;13.422;2023-04-06T09:22:03;9.03;;;3.20;;
3491;SDS011;1760;52.480;13.422;2023-04-06T09:24:43;4.53;;;2.90;;
3491;SDS011;1760;52.480;13.422;2023-04-06T09:27:11;3.27;;;2.47;;
3491;SDS011;1760;52.480;13.422;2023-04-06T09:29:38;4.00;;;2.30;;
3491;SDS011;1760;52.480;13.422;2023-04-06T09:32:07;3.53;;;2.30;;
3491;SDS011;1760;52.480;13.422;2023-04-06T09:34:36;3.20;;;2.30;;
3491;SDS011;1760;52.480;13.422;2023-04-06T09:37:11;3.00;;;2.70;;
3491;SDS011;1760;52.480;13.422;2023-04-06T09:39:39;4.10;;;2.67;;
3491;SDS011;1760;52.480;13.422;2023-04-06T09:42:07;6.70;;;2.30;;
3491;SDS011;1760;52.480;13.422;2023-04-06T09:44:34;3.03;;;2.40;;
3491;SDS011;1760;52.480;13.422;2023-04-06T09:47:02;3.53;;;2.53;;
3491;SDS011;1760;52.480;13.422;2023-04-06T09:49:33;3.40;;;2.90;;
3491;SDS011;1760;52.480;13.422;2023-04-06T09:52:02;6.23;;;2.37;;
3491;SDS011;1760;52.480;13.422;2023-04-06T09:54:32;4.03;;;3.20;;
3491;SDS011;1760;52.480;13.422;2023-04-06T09:57:04;5.90;;;2.60;;
3491;SDS011;1760;52.480;13.422;2023-04-06T09:59:38;7.73;;;4.03;;
3491;SDS011;1760;52.480;13.422;2023-04-06T10:02:13;2.67;;;2.23;;
3491;SDS011;1760;52.480;13.422;2023-04-06T10:04:46;3.10;;;2.00;;
3491;SDS011;1760;52.480;13.422;2023-04-06T10:07:20;3.40;;;1.70;;
3491;SDS011;1760;52.480;13.422;2023-04-06T10:09:48;2.77;;;1.80;;
3491;SDS011;1760;52.480;13.422;2023-04-06T10:12:17;3.30;;;2.33;;
3491;SDS011;1760;52.480;13.422;2023-04-06T10:14:45;2.80;;;1.80;;
3491;SDS011;1760;52.480;13.422;2023-04-06T10:17:12;2.83;;;2.07;;
3491;SDS011;1760;52.480;13.422;2023-04-06T10:19:41;1.60;;;1.50;;
3491;SDS011;1760;52.480;13.422;2023-04-06T10:22:18;2.53;;;2.00;;
3491;SDS011;1760;52.480;13.422;2023-04-06T10:24:50;1.70;;;1.40;;
3491;SDS011;1760;52.480;13.422;2023-04-06T10:27:26;3.73;;;1.57;;
3491;SDS011;1760;52.480;13.422;2023-04-06T10:29:53;2.30;;;2.00;;
3491;SDS011;1760;52.480;13.422;2023-04-06T10:32:31;2.70;;;1.77;;
3491;SDS011;1760;52.480;13.422;2023-04-06T10:35:04;2.03;;;1.70;;
3491;SDS011;1760;52.480;13.422;2023-04-06T10:37:49;3.57;;;1.90;;
3491;SDS011;1760;52.480;13.422;2023-04-06T10:40:21;8.30;;;2.30;;
3491;SDS011;1760;52.480;13.422;2023-04-06T10:42:52;2.87;;;1.87;;
3491;SDS011;1760;52.480;13.422;2023-04-06T10:45:20;1.80;;;1.67;;
3491;SDS011;1760;52.480;13.422;2023-04-06T10:47:48;2.60;;;1.90;;
3491;SDS011;1760;52.480;13.422;2023-04-06T10:50:16;3.20;;;2.50;;
3491;SDS011;1760;52.480;13.422;2023-04-06T10:52:44;3.67;;;2.03;;
3491;SDS011;1760;52.480;13.422;2023-04-06T10:55:12;2.23;;;2.03;;
3491;SDS011;1760;52.480;13.422;2023-04-06T10:57:40;2.70;;;1.90;;
3491;SDS011;1760;52.480;13.422;2023-04-06T11:00:11;2.50;;;2.13;;
3491;SDS011;1760;52.480;13.422;2023-04-06T11:02:38;2.67;;;2.40;;
3491;SDS011;1760;52.480;13.422;2023-04-06T11:05:06;3.83;;;2.50;;
3491;SDS011;1760;52.480;13.422;2023-04-06T11:07:34;2.50;;;1.93;;
3491;SDS011;1760;52.480;13.422;2023-04-06T11:10:00;5.00;;;2.73;;
3491;SDS011;1760;52.480;13.422;2023-04-06T11:12:28;4.03;;;2.27;;
3491;SDS011;1760;52.480;13.422;2023-04-06T11:14:56;2.30;;;2.00;;
3491;SDS011;1760;52.480;13.422;2023-04-06T11:17:30;3.60;;;2.13;;
3491;SDS011;1760;52.480;13.422;2023-04-06T11:19:58;2.13;;;1.93;;
3491;SDS011;1760;52.480;13.422;2023-04-06T11:22:26;3.33;;;2.67;;
3491;SDS011;1760;52.480;13.422;2023-04-06T11:24:53;2.03;;;1.70;;
3491;SDS011;1760;52.480;13.422;2023-04-06T11:27:30;3.17;;;2.00;;
3491;SDS011;1760;52.480;13.422;2023-04-06T11:29:58;2.73;;;2.00;;
3491;SDS011;1760;52.480;13.422;2023-04-06T11:32:25;2.77;;;2.00;;
3491;SDS011;1760;52.480;13.422;2023-04-06T11:34:54;3.77;;;2.27;;
3491;SDS011;1760;52.480;13.422;2023-04-06T11:37:21;3.57;;;2.50;;
3491;SDS011;1760;52.480;13.422;2023-04-06T11:39:53;4.97;;;2.30;;
3491;SDS011;1760;52.480;13.422;2023-04-06T11:42:22;2.97;;;2.07;;
3491;SDS011;1760;52.480;13.422;2023-04-06T11:44:50;2.63;;;1.90;;
3491;SDS011;1760;52.480;13.422;2023-04-06T11:47:19;3.57;;;2.50;;
3491;SDS011;1760;52.480;13.422;2023-04-06T11:49:47;3.03;;;2.73;;
3491;SDS011;1760;52.480;13.422;2023-04-06T11:52:17;3.00;;;2.13;;
3491;SDS011;1760;52.480;13.422;2023-04-06T11:54:45;2.43;;;1.93;;
3491;SDS011;1760;52.480;13.422;2023-04-06T11:57:13;1.60;;;1.50;;
3491;SDS011;1760;52.480;13.422;2023-04-06T11:59:42;3.10;;;2.20;;
3491;SDS011;1760;52.480;13.422;2023-04-06T12:02:10;4.07;;;2.40;;
3491;SDS011;1760;52.480;13.422;2023-04-06T12:04:37;2.60;;;2.00;;
3491;SDS011;1760;52.480;13.422;2023-04-06T12:07:04;4.50;;;2.23;;
3491;SDS011;1760;52.480;13.422;2023-04-06T12:09:33;8.13;;;2.33;;
3491;SDS011;1760;52.480;13.422;2023-04-06T12:12:01;4.33;;;2.33;;
3491;SDS011;1760;52.480;13.422;2023-04-06T12:14:29;2.30;;;2.00;;
3491;SDS011;1760;52.480;13.422;2023-04-06T12:16:56;2.10;;;1.90;;
3491;SDS011;1760;52.480;13.422;2023-04-06T12:19:23;2.97;;;2.10;;
3491;SDS011;1760;52.480;13.422;2023-04-06T12:21:51;2.57;;;2.00;;
3491;SDS011;1760;52.480;13.422;2023-04-06T12:24:18;3.40;;;2.17;;
3491;SDS011;1760;52.480;13.422;2023-04-06T12:26:47;5.10;;;1.90;;
3491;SDS011;1760;52.480;13.422;2023-04-06T12:29:14;3.40;;;2.03;;
3491;SDS011;1760;52.480;13.422;2023-04-06T12:31:41;5.80;;;2.57;;
3491;SDS011;1760;52.480;13.422;2023-04-06T12:34:09;3.27;;;2.33;;
3491;SDS011;1760;52.480;13.422;2023-04-06T12:36:36;3.73;;;2.40;;
3491;SDS011;1760;52.480;13.422;2023-04-06T12:39:04;2.50;;;2.23;;
3491;SDS011;1760;52.480;13.422;2023-04-06T12:41:31;8.40;;;2.53;;
3491;SDS011;1760;52.480;13.422;2023-04-06T12:44:00;2.57;;;2.23;;
3491;SDS011;1760;52.480;13.422;2023-04-06T12:46:28;2.73;;;2.33;;
3491;SDS011;1760;52.480;13.422;2023-04-06T12:48:56;3.30;;;2.10;;
3491;SDS011;1760;52.480;13.422;2023-04-06T12:51:24;3.43;;;2.50;;
3491;SDS011;1760;52.480;13.422;2023-04-06T12:53:53;6.40;;;2.93;;
3491;SDS011;1760;52.480;13.422;2023-04-06T12:56:20;3.10;;;2.37;;
3491;SDS011;1760;52.480;13.422;2023-04-06T12:58:47;2.60;;;2.00;;
3491;SDS011;1760;52.480;13.422;2023-04-06T13:01:17;2.40;;;1.90;;
3491;SDS011;1760;52.480;13.422;2023-04-06T13:03:45;3.60;;;2.03;;
3491;SDS011;1760;52.480;13.422;2023-04-06T13:06:12;2.10;;;1.90;;
3491;SDS011;1760;52.480;13.422;2023-04-06T13:08:40;3.70;;;3.00;;
3491;SDS011;1760;52.480;13.422;2023-04-06T13:11:07;3.70;;;2.60;;
3491;SDS011;1760;52.480;13.422;2023-04-06T13:13:35;2.30;;;2.10;;
3491;SDS011;1760;52.480;13.422;2023-04-06T13:16:03;2.37;;;2.17;;
3491;SDS011;1760;52.480;13.422;2023-04-06T13:18:33;4.33;;;2.73;;
3491;SDS011;1760;52.480;13.422;2023-04-06T13:21:03;2.53;;;2.33;;
3491;SDS011;1760;52.480;13.422;2023-04-06T13:23:30;4.20;;;3.00;;
3491;SDS011;1760;52.480;13.422;2023-04-06T13:25:58;3.30;;;2.67;;
3491;SDS011;1760;52.480;13.422;2023-04-06T13:28:27;2.83;;;2.23;;
3491;SDS011;1760;52.480;13.422;2023-04-06T13:30:54;3.77;;;3.17;;
3491;SDS011;1760;52.480;13.422;2023-04-06T13:33:21;3.97;;;3.10;;
3491;SDS011;1760;52.480;13.422;2023-04-06T13:35:50;2.87;;;2.57;;
3491;SDS011;1760;52.480;13.422;2023-04-06T13:38:17;3.50;;;2.43;;
3491;SDS011;1760;52.480;13.422;2023-04-06T13:40:44;4.43;;;3.17;;
3491;SDS011;1760;52.480;13.422;2023-04-06T13:43:11;2.97;;;2.67;;
3491;SDS011;1760;52.480;13.422;2023-04-06T13:45:38;4.60;;;2.70;;
3491;SDS011;1760;52.480;13.422;2023-04-06T13:48:05;4.90;;;2.80;;
3491;SDS011;1760;52.480;13.422;2023-04-06T13:50:32;3.40;;;2.03;;
3491;SDS011;1760;52.480;13.422;2023-04-06T13:53:01;3.40;;;2.57;;
3491;SDS011;1760;52.480;13.422;2023-04-06T13:55:28;4.53;;;2.40;;
3491;SDS011;1760;52.480;13.422;2023-04-06T13:57:56;3.63;;;2.20;;
3491;SDS011;1760;52.480;13.422;2023-04-06T14:00:24;3.73;;;2.33;;
3491;SDS011;1760;52.480;13.422;2023-04-06T14:02:53;4.10;;;2.43;;
3491;SDS011;1760;52.480;13.422;2023-04-06T14:05:20;3.63;;;2.40;;
3491;SDS011;1760;52.480;13.422;2023-04-06T14:07:48;2.67;;;2.20;;
3491;SDS011;1760;52.480;13.422;2023-04-06T14:10:17;3.27;;;2.60;;
3491;SDS011;1760;52.480;13.422;2023-04-06T14:12:46;3.13;;;2.00;;
3491;SDS011;1760;52.480;13.422;2023-04-06T14:15:13;4.03;;;2.03;;
3491;SDS011;1760;52.480;13.422;2023-04-06T14:17:40;4.80;;;3.60;;
3491;SDS011;1760;52.480;13.422;2023-04-06T14:20:07;5.20;;;2.50;;
3491;SDS011;1760;52.480;13.422;2023-04-06T14:22:38;3.00;;;1.90;;
3491;SDS011;1760;52.480;13.422;2023-04-06T14:25:06;3.03;;;2.37;;
3491;SDS011;1760;52.480;13.422;2023-04-06T14:27:36;2.40;;;2.00;;
3491;SDS011;1760;52.480;13.422;2023-04-06T14:30:03;2.57;;;2.17;;
3491;SDS011;1760;52.480;13.422;2023-04-06T14:32:30;5.27;;;2.53;;
3491;SDS011;1760;52.480;13.422;2023-04-06T14:34:57;4.13;;;2.07;;
3491;SDS011;1760;52.480;13.422;2023-04-06T14:37:24;4.60;;;2.63;;
3491;SDS011;1760;52.480;13.422;2023-04-06T14:39:51;5.63;;;2.50;;
3491;SDS011;1760;52.480;13.422;2023-04-06T14:42:18;5.23;;;2.43;;
3491;SDS011;1760;52.480;13.422;2023-04-06T14:44:46;2.60;;;2.07;;
3491;SDS011;1760;52.480;13.422;2023-04-06T14:47:13;5.70;;;2.60;;
3491;SDS011;1760;52.480;13.422;2023-04-06T14:49:45;4.23;;;2.57;;
3491;SDS011;1760;52.480;13.422;2023-04-06T14:52:12;4.80;;;2.30;;
3491;SDS011;1760;52.480;13.422;2023-04-06T14:54:39;6.53;;;3.30;;
3491;SDS011;1760;52.480;13.422;2023-04-06T14:57:05;16.83;;;8.10;;
3491;SDS011;1760;52.480;13.422;2023-04-06T14:59:32;3.20;;;2.40;;
3491;SDS011;1760;52.480;13.422;2023-04-06T15:02:01;2.77;;;2.20;;
3491;SDS011;1760;52.480;13.422;2023-04-06T15:04:28;2.53;;;2.23;;